createdAt,value
2023-04-02T00:01:30.110Z,37.53
2023-04-02T00:04:14.674Z,36.70
2023-04-02T00:06:46.715Z,35.13
2023-04-02T00:09:34.190Z,33.50
2023-04-02T00:12:16.925Z,41.27
2023-04-02T00:14:51.499Z,43.27
2023-04-02T00:17:21.440Z,32.40
2023-04-02T00:19:54.964Z,23.83
2023-04-02T00:22:28.089Z,20.93
2023-04-02T00:24:57.936Z,24.40
2023-04-02T00:27:27.925Z,40.53
2023-04-02T00:29:57.772Z,32.40
2023-04-02T00:32:28.009Z,31.60
2023-04-02T00:34:56.764Z,31.07
2023-04-02T00:37:29.768Z,33.37
2023-04-02T00:40:06.316Z,25.00
2023-04-02T00:42:40.461Z,30.93
2023-04-02T00:45:19.672Z,34.17
2023-04-02T00:47:48.602Z,31.30
2023-04-02T00:50:24.861Z,30.03
2023-04-02T00:52:55.039Z,37.03
2023-04-02T00:55:26.441Z,30.33
2023-04-02T00:58:02.511Z,35.03
2023-04-02T01:00:33.340Z,28.73
2023-04-02T01:03:30.460Z,34.57
2023-04-02T01:06:10.553Z,32.77
2023-04-02T01:08:52.723Z,30.93
2023-04-02T01:11:37.939Z,30.07
2023-04-02T01:14:17.761Z,31.03
2023-04-02T01:16:54.026Z,25.33
2023-04-02T01:19:50.478Z,33.27
2023-04-02T01:22:30.772Z,30.37
2023-04-02T01:24:59.900Z,27.73
2023-04-02T01:27:34.027Z,32.23
2023-04-02T01:30:07.363Z,26.60
2023-04-02T01:32:36.840Z,29.53
2023-04-02T01:35:06.006Z,32.10
2023-04-02T01:37:45.109Z,33.87
2023-04-02T01:40:32.597Z,26.03
2023-04-02T01:43:09.448Z,30.67
2023-04-02T01:45:39.808Z,24.70
2023-04-02T01:48:14.558Z,29.37
2023-04-02T01:50:45.539Z,30.87
2023-04-02T01:53:16.871Z,28.70
2023-04-02T01:55:48.823Z,28.20
2023-04-02T01:58:21.015Z,30.00
2023-04-02T02:00:54.377Z,27.60
2023-04-02T02:03:22.990Z,28.73
2023-04-02T02:05:51.931Z,30.00
2023-04-02T02:08:32.710Z,28.57
2023-04-02T02:11:01.416Z,34.87
2023-04-02T02:13:29.824Z,34.10
2023-04-02T02:16:01.137Z,29.27
2023-04-02T02:18:30.597Z,26.37
2023-04-02T02:21:01.196Z,24.53
2023-04-02T02:23:30.999Z,31.77
2023-04-02T02:26:00.200Z,35.30
2023-04-02T02:28:32.472Z,35.27
2023-04-02T02:31:04.814Z,30.47
2023-04-02T02:33:37.191Z,37.17
2023-04-02T02:36:09.755Z,29.53
2023-04-02T02:38:48.365Z,30.57
2023-04-02T02:41:22.654Z,28.87
2023-04-02T02:43:58.501Z,30.47
2023-04-02T02:46:30.610Z,27.73
2023-04-02T02:49:00.925Z,23.53
2023-04-02T02:51:39.231Z,25.43
2023-04-02T02:54:09.579Z,26.00
2023-04-02T02:56:43.106Z,23.80
2023-04-02T02:59:12.466Z,24.53
2023-04-02T03:01:43.035Z,31.57
2023-04-02T03:04:12.086Z,25.93
2023-04-02T03:06:42.164Z,24.50
2023-04-02T03:09:19.912Z,26.70
2023-04-02T03:11:54.428Z,27.80
2023-04-02T03:14:30.120Z,24.60
2023-04-02T03:17:04.628Z,22.97
2023-04-02T03:19:41.294Z,23.53
2023-04-02T03:22:15.385Z,20.23
2023-04-02T03:24:53.396Z,23.40
2023-04-02T03:27:25.179Z,23.77
2023-04-02T03:30:04.052Z,22.63
2023-04-02T03:32:37.068Z,24.87
2023-04-02T03:35:16.318Z,26.20
2023-04-02T03:37:48.168Z,19.63
2023-04-02T03:40:21.743Z,27.87
2023-04-02T03:42:54.575Z,17.53
2023-04-02T03:45:25.651Z,19.00
2023-04-02T03:48:00.156Z,22.50
2023-04-02T03:50:33.884Z,19.67
2023-04-02T03:53:04.268Z,19.70
2023-04-02T03:55:35.022Z,27.20
2023-04-02T03:58:08.124Z,20.37
2023-04-02T04:00:40.292Z,17.77
2023-04-02T04:03:15.423Z,18.97
2023-04-02T04:05:49.793Z,19.97
2023-04-02T04:08:22.233Z,26.17
2023-04-02T04:10:53.626Z,16.93
2023-04-02T04:13:27.024Z,19.37
2023-04-02T04:16:00.488Z,28.33
2023-04-02T04:18:38.121Z,25.17
2023-04-02T04:21:16.512Z,25.37
2023-04-02T04:23:51.325Z,22.97
2023-04-02T04:26:24.835Z,19.33
2023-04-02T04:29:05.480Z,21.27
2023-04-02T04:31:39.999Z,20.10
2023-04-02T04:34:16.186Z,23.83
2023-04-02T04:36:48.081Z,12.70
2023-04-02T04:39:21.716Z,24.90
2023-04-02T04:41:51.212Z,16.77
2023-04-02T04:44:23.168Z,20.90
2023-04-02T04:46:57.137Z,31.93
2023-04-02T04:49:34.049Z,30.97
2023-04-02T04:52:10.256Z,20.43
2023-04-02T04:54:40.441Z,23.23
2023-04-02T04:57:24.208Z,23.23
2023-04-02T04:59:59.659Z,25.93
2023-04-02T05:02:32.243Z,23.47
2023-04-02T05:05:03.595Z,27.70
2023-04-02T05:07:37.482Z,28.33
2023-04-02T05:10:13.924Z,23.73
2023-04-02T05:12:45.646Z,22.37
2023-04-02T05:15:18.172Z,22.40
2023-04-02T05:17:54.259Z,22.73
2023-04-02T05:20:28.127Z,26.13
2023-04-02T05:23:00.755Z,26.00
2023-04-02T05:25:31.065Z,16.50
2023-04-02T05:28:03.981Z,20.53
2023-04-02T05:30:41.275Z,20.33
2023-04-02T05:33:22.111Z,18.93
2023-04-02T05:35:58.659Z,19.20
2023-04-02T05:38:29.684Z,23.57
2023-04-02T05:41:03.015Z,25.63
2023-04-02T05:43:34.635Z,20.77
2023-04-02T05:46:09.022Z,18.93
2023-04-02T05:48:40.776Z,21.10
2023-04-02T05:51:17.554Z,21.50
2023-04-02T05:53:51.208Z,24.53
2023-04-02T05:56:23.078Z,24.07
2023-04-02T05:58:55.656Z,26.50
2023-04-02T06:01:33.515Z,23.37
2023-04-02T06:04:08.651Z,21.57
2023-04-02T06:07:04.630Z,22.10
2023-04-02T06:09:43.290Z,20.00
2023-04-02T06:12:23.688Z,18.67
2023-04-02T06:14:52.207Z,18.70
2023-04-02T06:17:21.783Z,14.77
2023-04-02T06:19:52.471Z,13.63
2023-04-02T06:22:26.387Z,19.33
2023-04-02T06:24:59.604Z,18.67
2023-04-02T06:27:29.174Z,19.73
2023-04-02T06:30:02.001Z,21.03
2023-04-02T06:32:30.767Z,17.27
2023-04-02T06:34:59.396Z,15.83
2023-04-02T06:37:33.542Z,17.77
2023-04-02T06:40:03.863Z,19.77
2023-04-02T06:42:35.434Z,24.10
2023-04-02T06:45:04.129Z,18.23
2023-04-02T06:47:37.711Z,23.10
2023-04-02T06:50:09.399Z,23.07
2023-04-02T06:52:44.462Z,21.63
2023-04-02T06:55:31.055Z,19.33
2023-04-02T06:57:59.656Z,19.93
2023-04-02T07:00:35.030Z,20.90
2023-04-02T07:03:07.906Z,21.13
2023-04-02T07:05:36.724Z,24.03
2023-04-02T07:08:07.953Z,25.73
2023-04-02T07:10:37.111Z,19.97
2023-04-02T07:13:05.996Z,23.67
2023-04-02T07:15:34.745Z,19.67
2023-04-02T07:18:03.606Z,19.23
2023-04-02T07:20:34.360Z,20.13
2023-04-02T07:23:02.832Z,16.93
2023-04-02T07:25:32.899Z,19.30
2023-04-02T07:28:02.444Z,19.53
2023-04-02T07:30:30.923Z,16.47
2023-04-02T07:32:59.401Z,16.77
2023-04-02T07:35:28.034Z,20.47
2023-04-02T07:37:56.663Z,22.53
2023-04-02T07:40:25.150Z,17.43
2023-04-02T07:42:54.883Z,21.67
2023-04-02T07:45:23.443Z,17.30
2023-04-02T07:47:52.311Z,22.10
2023-04-02T07:50:21.126Z,14.90
2023-04-02T07:52:49.512Z,21.53
2023-04-02T07:55:18.539Z,24.33
2023-04-02T07:57:51.535Z,22.57
2023-04-02T08:00:22.601Z,23.10
2023-04-02T08:02:51.567Z,26.37
2023-04-02T08:05:20.317Z,28.87
2023-04-02T08:07:55.580Z,29.03
2023-04-02T08:10:25.005Z,25.97
2023-04-02T08:12:53.504Z,28.27
2023-04-02T08:15:23.281Z,27.50
2023-04-02T08:17:51.815Z,27.63
2023-04-02T08:20:22.880Z,22.67
2023-04-02T08:22:51.815Z,24.53
2023-04-02T08:25:20.281Z,28.40
2023-04-02T08:27:49.715Z,27.83
2023-04-02T08:30:18.930Z,29.40
2023-04-02T08:32:49.197Z,34.93
2023-04-02T08:35:18.405Z,27.40
2023-04-02T08:37:46.853Z,24.77
2023-04-02T08:40:26.019Z,27.33
2023-04-02T08:43:06.576Z,19.57
2023-04-02T08:45:45.961Z,17.70
2023-04-02T08:48:16.931Z,19.10
2023-04-02T08:50:46.273Z,18.57
2023-04-02T08:53:19.065Z,16.33
2023-04-02T08:55:55.801Z,15.83
2023-04-02T08:58:39.592Z,16.47
2023-04-02T09:01:11.893Z,16.40
2023-04-02T09:03:46.456Z,15.20
2023-04-02T09:06:18.300Z,13.53
2023-04-02T09:08:49.776Z,12.93
2023-04-02T09:11:24.807Z,13.93
2023-04-02T09:13:57.733Z,13.60
2023-04-02T09:16:40.130Z,14.60
2023-04-02T09:19:18.478Z,11.83
2023-04-02T09:22:01.961Z,14.17
2023-04-02T09:24:30.505Z,14.70
2023-04-02T09:26:59.414Z,11.57
2023-04-02T09:29:41.763Z,17.37
2023-04-02T09:32:27.816Z,12.47
2023-04-02T09:35:24.532Z,11.97
2023-04-02T09:38:20.615Z,10.17
2023-04-02T09:40:52.308Z,13.97
2023-04-02T09:43:22.203Z,7.63
2023-04-02T09:46:02.414Z,13.07
2023-04-02T09:48:33.915Z,14.70
2023-04-02T09:51:22.908Z,14.07
2023-04-02T09:53:52.921Z,12.40
2023-04-02T09:56:23.363Z,11.80
2023-04-02T09:59:04.895Z,12.63
2023-04-02T10:01:35.335Z,16.73
2023-04-02T10:04:05.478Z,14.67
2023-04-02T10:06:36.470Z,10.47
2023-04-02T10:09:28.826Z,11.07
2023-04-02T10:11:59.019Z,12.83
2023-04-02T10:14:31.407Z,14.70
2023-04-02T10:17:04.684Z,14.50
2023-04-02T10:19:37.448Z,17.80
2023-04-02T10:22:12.610Z,15.60
2023-04-02T10:24:41.841Z,11.23
2023-04-02T10:27:22.607Z,15.00
2023-04-02T10:30:11.177Z,13.60
2023-04-02T10:32:45.953Z,8.87
2023-04-02T10:35:34.328Z,10.83
2023-04-02T10:38:25.336Z,11.63
2023-04-02T10:40:59.896Z,7.83
2023-04-02T10:44:18.965Z,14.73
2023-04-02T10:47:01.286Z,9.50
2023-04-02T10:49:39.592Z,17.83
2023-04-02T10:52:13.896Z,10.97
2023-04-02T10:54:49.723Z,11.40
2023-04-02T10:57:38.394Z,12.03
2023-04-02T11:00:17.139Z,9.97
2023-04-02T11:02:50.096Z,12.20
2023-04-02T11:05:28.147Z,9.93
2023-04-02T11:08:03.994Z,10.47
2023-04-02T11:10:37.856Z,10.13
2023-04-02T11:13:14.319Z,11.17
2023-04-02T11:15:43.534Z,10.63
2023-04-02T11:18:25.625Z,12.50
2023-04-02T11:21:02.970Z,11.03
2023-04-02T11:23:34.090Z,8.03
2023-04-02T11:26:33.760Z,14.63
2023-04-02T11:29:17.795Z,13.83
2023-04-02T11:31:47.315Z,11.90
2023-04-02T11:34:17.707Z,11.10
2023-04-02T11:37:04.135Z,13.97
2023-04-02T11:39:55.355Z,11.40
2023-04-02T11:42:30.755Z,10.23
2023-04-02T11:45:02.719Z,11.30
2023-04-02T11:47:31.603Z,8.87
2023-04-02T11:50:05.932Z,15.63
2023-04-02T11:52:51.071Z,15.70
2023-04-02T11:55:28.711Z,8.93
2023-04-02T11:58:32.381Z,9.13
2023-04-02T12:01:45.741Z,6.20
2023-04-02T12:04:49.367Z,12.43
2023-04-02T12:08:05.453Z,13.63
2023-04-02T12:10:35.614Z,9.57
2023-04-02T12:13:04.153Z,12.00
2023-04-02T12:15:47.700Z,12.27
2023-04-02T12:18:22.422Z,11.90
2023-04-02T12:20:52.575Z,11.13
2023-04-02T12:23:23.074Z,10.40
2023-04-02T12:25:59.518Z,14.17
2023-04-02T12:28:30.093Z,12.43
2023-04-02T12:31:13.017Z,12.63
2023-04-02T12:33:42.610Z,17.17
2023-04-02T12:36:20.707Z,10.30
2023-04-02T12:38:50.840Z,15.33
2023-04-02T12:41:25.318Z,8.83
2023-04-02T12:44:00.932Z,13.30
2023-04-02T12:46:32.636Z,10.30
2023-04-02T12:49:06.036Z,9.63
2023-04-02T12:51:35.200Z,9.90
2023-04-02T12:54:04.127Z,8.87
2023-04-02T12:56:32.815Z,11.30
2023-04-02T12:59:02.480Z,10.70
2023-04-02T13:01:33.995Z,10.40
2023-04-02T13:04:07.301Z,12.20
2023-04-02T13:06:37.132Z,10.30
2023-04-02T13:09:07.643Z,11.43
2023-04-02T13:11:37.793Z,13.57
2023-04-02T13:14:08.176Z,18.67
2023-04-02T13:16:40.696Z,11.60
2023-04-02T13:19:22.264Z,9.03
2023-04-02T13:21:51.790Z,13.43
2023-04-02T13:24:21.066Z,8.30
2023-04-02T13:26:50.456Z,9.50
2023-04-02T13:29:23.734Z,12.50
2023-04-02T13:31:54.388Z,13.93
2023-04-02T13:34:22.920Z,13.03
2023-04-02T13:36:51.521Z,11.07
2023-04-02T13:39:20.591Z,7.63
2023-04-02T13:41:50.896Z,11.83
2023-04-02T13:44:24.765Z,9.87
2023-04-02T13:46:55.920Z,8.63
2023-04-02T13:49:25.413Z,8.30
2023-04-02T13:51:55.241Z,6.80
2023-04-02T13:54:27.691Z,10.37
2023-04-02T13:56:57.244Z,9.13
2023-04-02T13:59:26.072Z,7.40
2023-04-02T14:01:58.692Z,11.53
2023-04-02T14:04:29.582Z,13.53
2023-04-02T14:07:29.211Z,11.00
2023-04-02T14:10:05.143Z,8.53
2023-04-02T14:12:52.090Z,10.53
2023-04-02T14:15:31.932Z,8.07
2023-04-02T14:18:16.687Z,9.53
2023-04-02T14:20:53.716Z,11.37
2023-04-02T14:23:36.431Z,7.07
2023-04-02T14:26:14.721Z,8.30
2023-04-02T14:28:57.467Z,8.13
2023-04-02T14:31:31.977Z,9.80
2023-04-02T14:34:06.041Z,10.10
2023-04-02T14:36:46.071Z,12.97
2023-04-02T14:39:21.529Z,11.73
2023-04-02T14:41:59.140Z,9.07
2023-04-02T14:44:31.969Z,8.43
2023-04-02T14:47:10.229Z,9.57
2023-04-02T14:49:44.017Z,6.97
2023-04-02T14:52:16.125Z,7.83
2023-04-02T14:54:52.024Z,12.50
2023-04-02T14:57:24.208Z,9.07
2023-04-02T14:59:59.929Z,10.20
2023-04-02T15:02:38.207Z,11.20
2023-04-02T15:05:17.709Z,9.37
2023-04-02T15:07:52.088Z,6.33
2023-04-02T15:10:27.205Z,11.53
2023-04-02T15:12:57.928Z,12.33
2023-04-02T15:15:39.907Z,8.57
2023-04-02T15:18:13.876Z,16.73
2023-04-02T15:20:51.393Z,11.10
2023-04-02T15:23:29.146Z,10.80
2023-04-02T15:26:06.342Z,9.53
2023-04-02T15:28:41.977Z,9.20
2023-04-02T15:31:14.866Z,11.33
2023-04-02T15:33:45.998Z,12.23
2023-04-02T15:36:43.941Z,10.90
2023-04-02T15:39:38.550Z,11.40
2023-04-02T15:42:19.026Z,10.33
2023-04-02T15:45:02.446Z,10.93
2023-04-02T15:47:38.090Z,10.57
2023-04-02T15:50:22.260Z,16.50
2023-04-02T15:52:57.457Z,9.17
2023-04-02T15:55:33.502Z,9.63
2023-04-02T15:58:28.259Z,20.73
2023-04-02T16:01:08.737Z,12.17
2023-04-02T16:04:05.303Z,11.40
2023-04-02T16:06:42.948Z,12.73
2023-04-02T16:09:24.456Z,10.63
2023-04-02T16:11:59.605Z,12.07
2023-04-02T16:14:29.606Z,9.07
2023-04-02T16:17:08.052Z,9.47
2023-04-02T16:19:45.980Z,7.97
2023-04-02T16:22:21.188Z,12.63
2023-04-02T16:24:58.801Z,10.60
2023-04-02T16:27:34.725Z,10.50
2023-04-02T16:30:30.643Z,11.23
2023-04-02T16:33:09.826Z,11.03
2023-04-02T16:35:46.667Z,11.67
2023-04-02T16:38:31.544Z,10.00
2023-04-02T16:41:09.386Z,11.17
2023-04-02T16:43:45.282Z,8.30
2023-04-02T16:46:38.134Z,9.07
2023-04-02T16:49:18.383Z,14.93
2023-04-02T16:51:56.837Z,12.00
2023-04-02T16:54:32.021Z,7.57
2023-04-02T16:57:21.471Z,10.03
2023-04-02T17:00:02.026Z,13.47
2023-04-02T17:02:42.307Z,10.63
2023-04-02T17:05:26.630Z,9.67
2023-04-02T17:08:04.465Z,7.93
2023-04-02T17:10:34.063Z,10.77
2023-04-02T17:13:23.003Z,10.50
2023-04-02T17:15:56.624Z,11.23
2023-04-02T17:18:26.521Z,12.27
2023-04-02T17:20:55.690Z,14.53
2023-04-02T17:23:25.495Z,11.20
2023-04-02T17:25:58.513Z,16.67
2023-04-02T17:28:36.845Z,10.83
2023-04-02T17:31:11.516Z,12.73
2023-04-02T17:33:39.925Z,7.97
2023-04-02T17:36:32.929Z,12.90
2023-04-02T17:39:12.467Z,9.40
2023-04-02T17:41:48.616Z,11.33
2023-04-02T17:44:37.342Z,8.63
2023-04-02T17:47:14.615Z,7.37
2023-04-02T17:49:51.648Z,8.47
2023-04-02T17:52:25.793Z,6.60
2023-04-02T17:55:05.704Z,8.10
2023-04-02T17:57:46.443Z,9.33
2023-04-02T18:00:36.354Z,11.37
2023-04-02T18:03:38.150Z,8.60
2023-04-02T18:06:15.150Z,10.80
2023-04-02T18:08:55.065Z,12.63
2023-04-02T18:11:33.165Z,9.37
2023-04-02T18:14:06.717Z,8.40
2023-04-02T18:16:45.841Z,12.03
2023-04-02T18:19:19.259Z,12.67
2023-04-02T18:21:58.163Z,8.07
2023-04-02T18:24:42.701Z,11.03
2023-04-02T18:27:26.151Z,9.00
2023-04-02T18:30:03.851Z,11.10
2023-04-02T18:32:58.933Z,10.23
2023-04-02T18:35:32.805Z,13.03
2023-04-02T18:38:14.670Z,6.17
2023-04-02T18:40:53.853Z,12.57
2023-04-02T18:43:34.067Z,8.87
2023-04-02T18:46:07.060Z,7.47
2023-04-02T18:48:48.044Z,8.43
2023-04-02T18:51:22.058Z,12.50
2023-04-02T18:53:52.097Z,11.97
2023-04-02T18:56:22.334Z,6.83
2023-04-02T18:58:57.588Z,12.10
2023-04-02T19:01:31.661Z,10.73
2023-04-02T19:04:07.116Z,10.90
2023-04-02T19:06:39.210Z,9.00
2023-04-02T19:09:15.260Z,10.57
2023-04-02T19:11:43.872Z,6.77
2023-04-02T19:14:14.746Z,9.30
2023-04-02T19:16:58.631Z,9.73
2023-04-02T19:19:31.776Z,11.63
2023-04-02T19:22:13.922Z,8.27
2023-04-02T19:25:01.334Z,7.67
2023-04-02T19:27:39.230Z,8.50
2023-04-02T19:30:38.505Z,10.00
2023-04-02T19:33:16.634Z,10.43
2023-04-02T19:35:50.568Z,5.37
2023-04-02T19:38:33.535Z,12.50
2023-04-02T19:41:05.143Z,13.60
2023-04-02T19:43:33.697Z,10.70
2023-04-02T19:46:03.833Z,10.00
2023-04-02T19:48:42.842Z,10.07
2023-04-02T19:51:12.608Z,13.23
2023-04-02T19:53:41.033Z,12.93
2023-04-02T19:56:09.494Z,13.80
2023-04-02T19:58:38.026Z,13.50
2023-04-02T20:01:06.522Z,16.47
2023-04-02T20:03:35.151Z,19.10
2023-04-02T20:06:03.691Z,11.67
2023-04-02T20:08:33.931Z,18.33
2023-04-02T20:11:02.455Z,16.13
2023-04-02T20:13:31.014Z,13.07
2023-04-02T20:16:01.000Z,17.63
2023-04-02T20:18:29.536Z,15.43
2023-04-02T20:20:58.063Z,14.73
2023-04-02T20:23:26.629Z,13.77
2023-04-02T20:25:58.202Z,19.13
2023-04-02T20:28:28.401Z,20.13
2023-04-02T20:31:06.178Z,21.40
2023-04-02T20:33:34.751Z,18.63
2023-04-02T20:36:04.991Z,18.23
2023-04-02T20:38:34.972Z,18.10
2023-04-02T20:41:06.412Z,18.93
2023-04-02T20:43:36.044Z,18.80
2023-04-02T20:46:08.345Z,21.40
2023-04-02T20:48:39.474Z,12.77
2023-04-02T20:51:09.534Z,16.17
2023-04-02T20:53:39.219Z,14.23
2023-04-02T20:56:10.383Z,18.63
2023-04-02T20:58:39.641Z,22.17
2023-04-02T21:01:12.651Z,16.83
2023-04-02T21:03:41.308Z,22.80
2023-04-02T21:06:14.469Z,21.87
2023-04-02T21:08:43.873Z,13.40
2023-04-02T21:11:13.696Z,14.27
2023-04-02T21:13:44.283Z,19.37
2023-04-02T21:16:16.276Z,16.40
2023-04-02T21:18:45.078Z,15.53
2023-04-02T21:21:15.095Z,10.33
2023-04-02T21:23:44.317Z,12.23
2023-04-02T21:26:16.019Z,12.37
2023-04-02T21:28:45.320Z,11.00
2023-04-02T21:31:15.069Z,11.73
2023-04-02T21:33:45.370Z,9.47
2023-04-02T21:36:15.008Z,11.47
2023-04-02T21:38:44.066Z,10.47
2023-04-02T21:41:18.610Z,10.87
2023-04-02T21:43:48.372Z,10.53
2023-04-02T21:46:18.090Z,10.83
2023-04-02T21:48:46.899Z,10.20
2023-04-02T21:51:16.303Z,11.37
2023-04-02T21:53:45.564Z,10.97
2023-04-02T21:56:18.176Z,9.93
2023-04-02T21:58:47.838Z,9.57
2023-04-02T22:01:26.663Z,9.07
2023-04-02T22:03:57.118Z,8.63
2023-04-02T22:06:27.823Z,9.07
2023-04-02T22:08:57.817Z,8.57
2023-04-02T22:11:30.577Z,9.37
2023-04-02T22:13:59.403Z,10.77
2023-04-02T22:16:30.111Z,12.33
2023-04-02T22:19:01.029Z,7.43
2023-04-02T22:21:30.768Z,10.17
2023-04-02T22:24:01.514Z,9.47
2023-04-02T22:26:32.323Z,9.00
2023-04-02T22:29:01.034Z,8.60
2023-04-02T22:31:32.028Z,10.33
2023-04-02T22:34:01.024Z,7.63
2023-04-02T22:36:30.508Z,10.27
2023-04-02T22:38:59.893Z,12.53
2023-04-02T22:41:32.096Z,11.27
2023-04-02T22:44:01.685Z,11.30
2023-04-02T22:46:31.482Z,10.67
2023-04-02T22:49:00.149Z,9.50
2023-04-02T22:51:29.234Z,9.90
2023-04-02T22:53:58.180Z,7.33
2023-04-02T22:56:28.927Z,9.70
2023-04-02T22:58:58.805Z,13.03
2023-04-02T23:01:28.982Z,9.30
2023-04-02T23:03:57.712Z,14.60
2023-04-02T23:06:28.564Z,12.00
2023-04-02T23:08:57.176Z,9.37
2023-04-02T23:11:27.784Z,10.47
2023-04-02T23:13:59.089Z,13.10
2023-04-02T23:16:29.245Z,11.63
2023-04-02T23:18:58.170Z,11.33
2023-04-02T23:21:27.145Z,13.50
2023-04-02T23:23:55.865Z,11.43
2023-04-02T23:26:29.248Z,11.27
2023-04-02T23:28:59.882Z,14.23
2023-04-02T23:31:28.878Z,14.70
2023-04-02T23:33:57.404Z,13.10
2023-04-02T23:36:27.910Z,14.37
2023-04-02T23:38:57.382Z,8.90
2023-04-02T23:41:26.881Z,10.90
2023-04-02T23:43:55.944Z,14.43
2023-04-02T23:46:26.473Z,12.53
2023-04-02T23:48:55.791Z,11.10
2023-04-02T23:51:24.468Z,10.97
2023-04-02T23:53:53.818Z,10.07
2023-04-02T23:56:23.412Z,14.23
2023-04-02T23:58:52.129Z,15.67
